Terminal Aerodrome Forecast
Issued by NWS Twin Cities, MN

Home | Current Version | Previous Version | Text Only | Print | Product List | Glossary On
Versions: 1 2 3 4 5 6 7 8 9 10 11 12 13 14 15 16 17 18 19 20 21 22 23 24 25 26 27 28
100
FTUS43 KMPX 271124
TAFMSP
TAF
KMSP 271124Z 2712/2818 14004KT P6SM FEW100
     FM271900 18009KT P6SM BKN200
     FM280000 14008KT P6SM SCT060 OVC090
     FM280900 12007KT 5SM -DZ BR BKN008 OVC020
     FM281400 06004KT 3SM -DZ BR OVC008=

USA.gov is the U.S. government's official web portal to all federal, state and local government web resources and services.